Time;durP1;ratioP1;P1;durP2;ratioP2;P2;SDS_P1;SDS_P2;PMS_P1;PMS_P2;Temp;Humidity;BMP_temperature;BMP_pressure;BME280_temperature;BME280_humidity;BME280_pressure;Samples;Min_cycle;Max_cycle;Signal;HPM_P1;HPM_P2
2023/03/30 00:02:21;;;;;;;9.93;2.43;;;9.70;99.90;;;;;;4995357;28;20201;-74
2023/03/30 00:04:51;;;;;;;9.53;2.90;;;9.80;99.90;;;;;;4995107;28;20680;-74
2023/03/30 00:07:19;;;;;;;8.93;2.73;;;9.70;99.90;;;;;;4995073;28;20218;-74
2023/03/30 00:09:47;;;;;;;11.70;2.80;;;9.70;99.90;;;;;;4995089;28;20305;-74
2023/03/30 00:12:19;;;;;;;9.40;2.67;;;9.80;99.90;;;;;;4994516;28;20222;-73
2023/03/30 00:14:47;;;;;;;13.20;2.80;;;9.80;99.90;;;;;;4994837;28;20241;-74
2023/03/30 00:17:16;;;;;;;9.53;2.90;;;9.80;99.90;;;;;;4996994;28;20222;-75
2023/03/30 00:19:44;;;;;;;11.90;2.97;;;9.80;99.90;;;;;;5013819;28;20206;-73
2023/03/30 00:22:14;;;;;;;8.63;2.90;;;9.80;99.90;;;;;;5014095;28;20209;-73
2023/03/30 00:24:42;;;;;;;10.70;2.80;;;9.80;99.90;;;;;;5010940;28;20300;-75
2023/03/30 00:27:10;;;;;;;11.17;2.93;;;9.70;99.90;;;;;;4994815;28;20210;-74
2023/03/30 00:29:38;;;;;;;9.80;2.70;;;9.70;99.90;;;;;;4994695;28;20296;-73
2023/03/30 00:32:06;;;;;;;11.40;2.87;;;9.70;99.90;;;;;;4993672;28;21014;-73
2023/03/30 00:34:35;;;;;;;9.30;2.63;;;9.70;99.90;;;;;;4993822;28;20210;-73
2023/03/30 00:37:04;;;;;;;7.70;2.87;;;9.80;99.90;;;;;;4994258;28;20238;-74
2023/03/30 00:39:33;;;;;;;6.17;2.97;;;9.80;99.90;;;;;;4994292;28;20300;-75
2023/03/30 00:42:01;;;;;;;9.13;2.43;;;9.80;99.90;;;;;;4993706;28;20260;-74
2023/03/30 00:45:16;;;;;;;7.07;2.70;;;9.90;99.90;;;;;;5013422;28;20729;-75
2023/03/30 00:47:49;;;;;;;11.40;2.43;;;9.90;99.90;;;;;;5009812;28;20260;-75
2023/03/30 00:50:21;;;;;;;7.00;2.50;;;9.90;99.90;;;;;;5013723;28;20205;-73
2023/03/30 00:52:52;;;;;;;10.57;2.77;;;9.90;99.90;;;;;;5004151;28;20225;-74
2023/03/30 00:55:26;;;;;;;8.93;2.33;;;9.90;99.90;;;;;;4994145;28;20220;-73
2023/03/30 00:57:55;;;;;;;8.50;2.77;;;9.90;99.90;;;;;;4994264;28;20294;-73
2023/03/30 01:00:23;;;;;;;7.43;2.20;;;9.90;99.90;;;;;;4994712;28;20275;-75
2023/03/30 01:02:57;;;;;;;10.93;2.40;;;9.80;99.90;;;;;;4993299;28;20616;-74
2023/03/30 01:05:27;;;;;;;10.47;2.47;;;9.80;99.90;;;;;;4993638;28;20578;-74
2023/03/30 01:07:56;;;;;;;7.77;2.60;;;9.80;99.90;;;;;;4993947;28;20229;-76
2023/03/30 01:10:26;;;;;;;7.53;2.50;;;9.80;99.90;;;;;;4993430;28;20213;-74
2023/03/30 01:12:54;;;;;;;10.37;2.53;;;9.80;99.90;;;;;;4993596;28;20284;-75
2023/03/30 01:15:24;;;;;;;10.40;2.80;;;9.70;99.90;;;;;;4993375;28;20240;-74
2023/03/30 01:18:07;;;;;;;9.70;2.50;;;9.70;99.90;;;;;;4993343;28;20694;-76
2023/03/30 01:21:00;;;;;;;12.43;2.30;;;9.70;99.90;;;;;;5001403;28;20587;-74
2023/03/30 01:24:08;;;;;;;7.30;2.40;;;9.70;99.90;;;;;;4969912;28;20539;-74
2023/03/30 01:26:52;;;;;;;12.77;2.20;;;9.70;99.90;;;;;;4993276;28;20558;-74
2023/03/30 01:29:29;;;;;;;8.37;2.40;;;9.70;99.90;;;;;;5002892;28;20229;-74
2023/03/30 01:32:18;;;;;;;10.60;2.30;;;9.70;99.90;;;;;;5010625;28;20313;-73
2023/03/30 01:35:02;;;;;;;11.60;2.70;;;9.70;99.90;;;;;;4994496;28;20198;-75
2023/03/30 01:37:51;;;;;;;7.40;2.53;;;9.70;99.90;;;;;;4993705;28;20623;-73
2023/03/30 01:40:30;;;;;;;9.77;2.70;;;9.70;99.90;;;;;;4994325;28;20566;-75
2023/03/30 01:43:04;;;;;;;7.67;2.17;;;9.70;99.90;;;;;;4992174;28;20201;-75
2023/03/30 01:45:43;;;;;;;10.77;2.50;;;9.70;99.90;;;;;;4993157;28;20207;-74
2023/03/30 01:48:16;;;;;;;11.43;2.70;;;9.70;99.90;;;;;;4985712;28;20306;-74
2023/03/30 01:50:51;;;;;;;8.53;2.73;;;9.70;99.90;;;;;;5011356;28;20276;-74
2023/03/30 01:53:27;;;;;;;9.47;2.47;;;9.80;99.90;;;;;;5008355;28;20213;-74
2023/03/30 01:56:02;;;;;;;7.63;2.60;;;9.80;99.90;;;;;;5008077;28;20215;-76
2023/03/30 01:58:34;;;;;;;9.23;2.73;;;9.80;99.90;;;;;;5013113;28;20208;-75
2023/03/30 02:01:05;;;;;;;6.13;2.10;;;9.80;99.90;;;;;;5012611;28;20233;-74
2023/03/30 02:03:37;;;;;;;8.33;2.53;;;9.80;99.90;;;;;;4996381;28;20671;-73
2023/03/30 02:06:11;;;;;;;10.27;3.03;;;9.70;99.90;;;;;;4992912;28;20534;-73
2023/03/30 02:08:40;;;;;;;8.70;2.37;;;9.70;99.90;;;;;;4992954;28;20637;-73
2023/03/30 02:11:11;;;;;;;9.27;2.33;;;9.70;99.90;;;;;;4993117;28;20220;-74
2023/03/30 02:13:42;;;;;;;8.10;2.40;;;9.60;99.90;;;;;;4992387;28;20244;-75
2023/03/30 02:16:15;;;;;;;11.33;2.70;;;9.50;99.90;;;;;;4992623;28;20312;-74
2023/03/30 02:18:43;;;;;;;11.00;2.73;;;9.50;99.90;;;;;;4992692;28;20253;-76
2023/03/30 02:21:12;;;;;;;11.23;2.63;;;9.50;99.90;;;;;;4995145;28;20214;-74
2023/03/30 02:23:44;;;;;;;9.90;2.40;;;9.40;99.90;;;;;;4996328;28;20228;-74
2023/03/30 02:26:14;;;;;;;7.00;2.30;;;9.40;99.90;;;;;;4997062;28;20565;-74
2023/03/30 02:28:42;;;;;;;11.93;2.80;;;9.40;99.90;;;;;;4996563;28;20203;-74
2023/03/30 02:31:13;;;;;;;8.00;2.20;;;9.30;99.90;;;;;;4996788;28;20210;-74
2023/03/30 02:34:00;;;;;;;9.97;2.43;;;9.30;99.90;;;;;;4996312;28;20276;-74
2023/03/30 02:36:49;;;;;;;8.53;2.30;;;9.30;99.90;;;;;;5005395;28;20213;-74
2023/03/30 02:39:26;;;;;;;6.43;2.33;;;9.20;99.90;;;;;;5016125;28;20197;-75
2023/03/30 02:42:15;;;;;;;11.80;2.30;;;9.10;99.90;;;;;;5015899;28;20189;-74
2023/03/30 02:44:49;;;;;;;8.30;2.33;;;9.10;99.90;;;;;;5005935;28;20728;-73
2023/03/30 02:47:28;;;;;;;5.10;2.10;;;9.20;99.90;;;;;;4999432;28;20198;-74
2023/03/30 02:50:00;;;;;;;7.80;2.30;;;9.20;99.90;;;;;;4996248;28;20229;-75
2023/03/30 02:52:40;;;;;;;7.27;2.37;;;9.30;99.90;;;;;;4995641;28;20214;-74
2023/03/30 02:55:19;;;;;;;6.53;2.00;;;9.30;99.90;;;;;;4996015;28;20206;-74
2023/03/30 02:57:56;;;;;;;6.27;2.20;;;9.30;99.90;;;;;;4996152;28;20724;-73
2023/03/30 03:00:29;;;;;;;6.27;2.10;;;9.30;99.90;;;;;;4996660;28;20241;-75
2023/03/30 03:03:02;;;;;;;9.47;2.30;;;9.30;99.90;;;;;;4995964;28;20197;-75
2023/03/30 03:05:32;;;;;;;8.83;2.17;;;9.30;99.90;;;;;;4996154;28;20218;-75
2023/03/30 03:08:00;;;;;;;10.60;2.30;;;9.40;99.90;;;;;;4995767;28;20636;-74
2023/03/30 03:10:28;;;;;;;11.00;2.70;;;9.40;99.90;;;;;;4995774;28;20715;-73
2023/03/30 03:12:58;;;;;;;11.27;2.60;;;9.50;99.90;;;;;;4995904;28;20261;-74
2023/03/30 03:15:26;;;;;;;9.13;2.30;;;9.50;99.90;;;;;;4995514;28;20224;-75
2023/03/30 03:17:54;;;;;;;8.67;2.37;;;9.50;99.90;;;;;;4996094;28;20293;-75
2023/03/30 03:20:22;;;;;;;13.90;2.67;;;9.60;99.90;;;;;;4996126;28;20218;-74
2023/03/30 03:22:50;;;;;;;6.73;2.30;;;9.70;99.90;;;;;;4997591;28;20206;-73
2023/03/30 03:25:18;;;;;;;10.57;2.27;;;9.80;99.90;;;;;;4996929;28;20237;-73
2023/03/30 03:27:46;;;;;;;11.90;2.80;;;9.90;99.90;;;;;;5007703;28;20292;-73
2023/03/30 03:30:17;;;;;;;11.77;2.67;;;9.90;99.90;;;;;;5008805;28;20214;-74
2023/03/30 03:32:45;;;;;;;14.57;3.20;;;10.00;99.90;;;;;;5005198;28;20225;-73
2023/03/30 03:35:13;;;;;;;14.17;3.20;;;10.10;99.90;;;;;;5005134;28;20214;-74
2023/03/30 03:37:41;;;;;;;9.13;2.50;;;10.20;99.90;;;;;;5003160;28;20226;-74
2023/03/30 03:40:11;;;;;;;15.50;3.17;;;10.20;99.90;;;;;;5008378;28;20209;-73
2023/03/30 03:42:39;;;;;;;12.50;3.00;;;10.20;99.90;;;;;;5005854;28;20655;-75
2023/03/30 03:45:08;;;;;;;11.13;3.40;;;10.20;99.90;;;;;;5003809;28;20205;-74
2023/03/30 03:47:37;;;;;;;13.47;3.63;;;10.20;99.90;;;;;;5011061;28;20206;-75
2023/03/30 03:50:08;;;;;;;11.73;2.93;;;10.20;99.90;;;;;;5006230;28;20203;-75
2023/03/30 03:52:37;;;;;;;14.93;3.63;;;10.20;99.90;;;;;;5003660;28;20209;-73
2023/03/30 03:55:06;;;;;;;9.80;3.30;;;10.20;99.90;;;;;;5005162;28;20248;-75
2023/03/30 03:57:35;;;;;;;12.67;3.23;;;10.20;99.90;;;;;;5006544;28;20206;-75
2023/03/30 04:00:04;;;;;;;12.87;3.23;;;10.20;99.90;;;;;;5003230;28;20249;-75
2023/03/30 04:02:32;;;;;;;11.30;2.90;;;10.20;99.90;;;;;;5004585;28;20242;-74
2023/03/30 04:05:02;;;;;;;10.80;3.20;;;10.10;99.90;;;;;;5005472;28;20234;-75
2023/03/30 04:07:30;;;;;;;13.57;3.40;;;10.10;99.90;;;;;;5005519;28;20202;-74
2023/03/30 04:09:58;;;;;;;11.30;3.30;;;10.10;99.90;;;;;;5005941;28;20208;-77
2023/03/30 04:12:28;;;;;;;10.17;3.40;;;10.00;99.90;;;;;;5006207;28;20543;-76
2023/03/30 04:14:56;;;;;;;17.97;3.70;;;10.00;99.90;;;;;;5007210;28;20568;-77
2023/03/30 04:17:24;;;;;;;16.13;3.83;;;10.00;99.90;;;;;;5002431;28;20289;-74
2023/03/30 04:19:54;;;;;;;10.70;3.27;;;10.00;99.90;;;;;;5004549;28;20210;-76
2023/03/30 04:22:24;;;;;;;11.60;3.57;;;10.00;99.90;;;;;;5005251;28;20213;-76
2023/03/30 04:24:52;;;;;;;18.10;3.77;;;10.00;99.90;;;;;;5004496;28;20202;-75
2023/03/30 04:27:20;;;;;;;14.07;3.00;;;10.00;99.90;;;;;;5002583;28;20206;-74
2023/03/30 04:29:48;;;;;;;13.70;3.50;;;10.00;99.90;;;;;;5004339;28;20209;-75
2023/03/30 04:32:19;;;;;;;13.90;3.87;;;10.00;99.90;;;;;;5004359;28;20839;-77
2023/03/30 04:34:48;;;;;;;11.60;3.53;;;10.00;99.90;;;;;;5011491;28;20214;-76
2023/03/30 04:37:17;;;;;;;16.37;3.67;;;10.10;99.90;;;;;;5009666;28;20217;-76
2023/03/30 04:39:49;;;;;;;11.80;3.67;;;10.10;99.90;;;;;;5007904;28;20198;-75
2023/03/30 04:42:18;;;;;;;17.20;3.90;;;10.10;99.90;;;;;;5003196;28;20612;-77
2023/03/30 04:44:47;;;;;;;14.30;3.93;;;10.10;99.90;;;;;;5004695;28;20714;-75
2023/03/30 04:47:18;;;;;;;13.00;3.50;;;10.20;99.90;;;;;;5002883;28;20297;-75
2023/03/30 04:49:46;;;;;;;14.60;3.77;;;10.20;99.90;;;;;;5003875;28;20206;-76
2023/03/30 04:52:14;;;;;;;13.03;3.63;;;10.30;99.90;;;;;;5003042;28;20218;-75
2023/03/30 04:54:42;;;;;;;17.00;4.67;;;10.30;99.90;;;;;;5006133;28;20267;-76
2023/03/30 04:57:12;;;;;;;19.27;4.23;;;10.30;99.90;;;;;;5003693;28;20610;-75
2023/03/30 04:59:40;;;;;;;16.23;3.73;;;10.30;99.90;;;;;;5001722;28;20301;-77
2023/03/30 05:02:10;;;;;;;14.90;4.60;;;10.30;99.90;;;;;;5002926;28;20216;-74
2023/03/30 05:04:38;;;;;;;18.80;4.70;;;10.30;99.90;;;;;;5004957;28;20201;-77
2023/03/30 05:07:07;;;;;;;22.67;4.90;;;10.30;99.90;;;;;;5002472;28;20206;-76
2023/03/30 05:09:35;;;;;;;21.67;4.80;;;10.30;99.90;;;;;;4995794;28;20300;-78
2023/03/30 05:12:03;;;;;;;14.30;3.90;;;10.30;99.90;;;;;;5014615;28;20316;-76
2023/03/30 05:14:33;;;;;;;21.33;4.90;;;10.30;99.90;;;;;;5014029;28;20311;-77
2023/03/30 05:17:01;;;;;;;16.23;3.97;;;10.30;99.90;;;;;;5013918;28;20193;-77
2023/03/30 05:19:30;;;;;;;20.40;4.13;;;10.40;99.90;;;;;;5012110;28;20260;-75
2023/03/30 05:21:58;;;;;;;15.03;4.17;;;10.40;99.90;;;;;;5013048;28;20297;-77
2023/03/30 05:24:26;;;;;;;14.97;4.53;;;10.40;99.90;;;;;;5013770;28;20618;-76
2023/03/30 05:26:55;;;;;;;18.47;4.23;;;10.50;99.90;;;;;;5007462;28;20202;-77
2023/03/30 05:29:23;;;;;;;21.30;4.83;;;10.50;99.90;;;;;;4993541;28;20300;-76
2023/03/30 05:31:52;;;;;;;22.23;4.70;;;10.40;99.90;;;;;;4993121;28;20217;-76
2023/03/30 05:34:20;;;;;;;12.80;3.80;;;10.50;99.90;;;;;;4993429;28;20751;-77
2023/03/30 05:36:49;;;;;;;19.23;4.50;;;10.50;99.90;;;;;;5000735;28;20569;-77
2023/03/30 05:39:18;;;;;;;18.40;4.27;;;10.50;99.90;;;;;;4999531;28;20297;-77
2023/03/30 05:41:47;;;;;;;17.17;4.70;;;10.50;99.90;;;;;;4994557;28;20222;-75
2023/03/30 05:44:15;;;;;;;16.87;4.73;;;10.50;99.90;;;;;;5004663;28;20351;-77
2023/03/30 05:46:43;;;;;;;16.63;4.10;;;10.50;99.90;;;;;;5012988;28;20325;-77
2023/03/30 05:49:13;;;;;;;18.20;4.90;;;10.50;99.90;;;;;;5008568;28;20225;-76
2023/03/30 05:51:41;;;;;;;15.90;4.17;;;10.50;99.90;;;;;;4993060;28;20220;-77
2023/03/30 05:54:11;;;;;;;17.57;4.47;;;10.50;99.90;;;;;;4992964;28;20230;-77
2023/03/30 05:56:41;;;;;;;14.23;4.00;;;10.50;99.90;;;;;;4993361;28;20334;-77
2023/03/30 05:59:09;;;;;;;15.23;4.10;;;10.60;99.90;;;;;;4998988;28;20714;-75
2023/03/30 06:01:37;;;;;;;15.47;4.10;;;10.60;99.90;;;;;;5012466;28;20214;-78
2023/03/30 06:04:06;;;;;;;14.03;4.03;;;10.70;99.90;;;;;;5012290;28;20205;-79
2023/03/30 06:06:36;;;;;;;16.83;4.20;;;10.60;99.90;;;;;;4994901;28;20206;-77
2023/03/30 06:09:05;;;;;;;18.00;3.97;;;10.70;99.90;;;;;;4995907;28;20277;-76
2023/03/30 06:11:33;;;;;;;13.13;3.80;;;10.80;99.90;;;;;;5013205;28;20217;-75
2023/03/30 06:14:01;;;;;;;17.00;3.80;;;10.80;99.90;;;;;;5003497;28;20238;-74
2023/03/30 06:16:29;;;;;;;14.53;3.47;;;10.70;99.90;;;;;;4993206;28;20252;-74
2023/03/30 06:18:57;;;;;;;11.77;3.13;;;10.80;99.90;;;;;;4993259;28;20564;-75
2023/03/30 06:21:25;;;;;;;13.67;3.13;;;10.80;99.90;;;;;;4992797;28;20738;-76
2023/03/30 06:23:55;;;;;;;13.47;3.60;;;10.80;99.90;;;;;;4992947;28;20218;-73
2023/03/30 06:26:23;;;;;;;13.90;3.50;;;10.80;99.90;;;;;;4993253;28;20588;-75
2023/03/30 06:28:51;;;;;;;14.40;3.70;;;10.80;99.90;;;;;;4993175;28;20215;-76
2023/03/30 06:31:19;;;;;;;13.67;3.90;;;10.80;99.90;;;;;;4993114;28;20211;-74
2023/03/30 06:33:50;;;;;;;16.83;4.20;;;10.80;99.90;;;;;;4992690;28;20368;-75
2023/03/30 06:36:18;;;;;;;17.97;4.67;;;10.80;99.90;;;;;;4993112;28;20206;-74
2023/03/30 06:38:47;;;;;;;14.90;4.07;;;10.80;99.90;;;;;;4992641;28;20210;-74
2023/03/30 06:41:16;;;;;;;18.97;4.20;;;10.80;99.90;;;;;;4993199;28;20210;-74
2023/03/30 06:43:45;;;;;;;16.57;4.17;;;10.80;99.90;;;;;;5000832;28;20226;-74
2023/03/30 06:46:14;;;;;;;14.07;4.17;;;10.80;99.90;;;;;;4992909;28;20298;-75
2023/03/30 06:48:42;;;;;;;13.30;4.07;;;10.80;99.90;;;;;;4992691;28;20687;-76
2023/03/30 06:51:11;;;;;;;11.43;3.67;;;10.80;99.90;;;;;;4993126;28;20233;-74
2023/03/30 06:53:40;;;;;;;11.83;3.77;;;10.90;99.90;;;;;;4992409;28;20686;-76
2023/03/30 06:56:08;;;;;;;19.03;4.23;;;10.90;99.90;;;;;;4992553;28;20230;-76
2023/03/30 06:58:38;;;;;;;12.03;3.90;;;11.00;99.90;;;;;;4993142;28;20214;-73
2023/03/30 07:01:11;;;;;;;12.50;3.30;;;11.00;99.90;;;;;;5011549;28;20213;-75
2023/03/30 07:03:40;;;;;;;13.17;3.60;;;11.10;99.90;;;;;;5013456;28;20634;-76
2023/03/30 07:06:09;;;;;;;11.87;3.90;;;11.10;99.90;;;;;;5027906;28;20690;-74
2023/03/30 07:08:39;;;;;;;12.63;3.50;;;11.10;99.90;;;;;;5014998;28;20217;-75
2023/03/30 07:11:07;;;;;;;12.33;3.23;;;11.10;99.90;;;;;;4996262;28;20625;-75
2023/03/30 07:13:35;;;;;;;12.97;3.70;;;11.10;99.90;;;;;;4996176;28;20218;-76
2023/03/30 07:16:05;;;;;;;12.07;3.60;;;11.10;99.90;;;;;;4995839;28;20261;-76
2023/03/30 07:18:33;;;;;;;14.40;4.37;;;11.10;99.90;;;;;;4997083;28;20594;-76
2023/03/30 07:21:03;;;;;;;14.60;3.80;;;11.10;99.90;;;;;;5016173;28;20231;-73
2023/03/30 07:23:31;;;;;;;16.03;3.83;;;11.10;99.90;;;;;;5016051;28;20216;-75
2023/03/30 07:26:00;;;;;;;10.67;3.70;;;11.10;99.90;;;;;;5015789;28;20574;-75
2023/03/30 07:28:28;;;;;;;13.60;3.77;;;10.90;99.90;;;;;;5008555;28;20210;-75
2023/03/30 07:31:06;;;;;;;10.43;3.77;;;10.90;99.90;;;;;;4997262;28;20220;-76
2023/03/30 07:33:35;;;;;;;15.07;4.27;;;10.90;99.90;;;;;;4997778;28;20272;-76
2023/03/30 07:36:04;;;;;;;17.97;4.30;;;10.90;99.90;;;;;;4995680;28;20726;-75
2023/03/30 07:38:33;;;;;;;12.00;3.60;;;11.00;99.90;;;;;;4996226;28;20265;-75
2023/03/30 07:41:01;;;;;;;10.00;3.50;;;11.10;99.90;;;;;;5004994;28;20300;-76
2023/03/30 07:43:29;;;;;;;9.00;3.27;;;11.40;99.90;;;;;;5015509;28;20213;-75
2023/03/30 07:45:58;;;;;;;12.63;3.80;;;11.70;99.90;;;;;;5010576;28;20203;-75
2023/03/30 07:48:27;;;;;;;13.30;3.40;;;12.20;99.90;;;;;;4995333;28;20240;-75
2023/03/30 07:51:02;;;;;;;12.70;3.40;;;12.60;99.90;;;;;;4995264;28;20211;-75
2023/03/30 07:53:31;;;;;;;11.03;3.20;;;12.60;99.90;;;;;;4994065;28;20210;-75
2023/03/30 07:56:00;;;;;;;11.63;3.17;;;13.10;99.90;;;;;;4994533;28;20237;-76
2023/03/30 07:58:28;;;;;;;10.67;3.33;;;13.30;99.90;;;;;;4994748;28;20210;-75
2023/03/30 08:00:56;;;;;;;11.03;3.40;;;13.40;99.90;;;;;;4997793;28;20214;-76
2023/03/30 08:03:27;;;;;;;12.77;3.40;;;13.50;99.90;;;;;;4994833;28;20638;-75
2023/03/30 08:05:58;;;;;;;13.63;3.63;;;13.30;99.90;;;;;;4995606;28;20538;-75
2023/03/30 08:08:27;;;;;;;10.47;3.00;;;13.00;99.90;;;;;;4995171;28;20297;-76
2023/03/30 08:10:55;;;;;;;9.40;2.70;;;13.00;99.90;;;;;;4994722;28;20731;-77
2023/03/30 08:13:23;;;;;;;13.07;3.10;;;12.90;99.90;;;;;;4994584;28;20206;-76
2023/03/30 08:15:53;;;;;;;7.80;3.03;;;12.60;99.90;;;;;;4994648;28;20238;-75
2023/03/30 08:18:21;;;;;;;11.83;3.07;;;12.50;99.90;;;;;;4994423;28;20297;-75
2023/03/30 08:20:53;;;;;;;7.70;3.00;;;12.30;99.90;;;;;;5014486;28;20210;-77
2023/03/30 08:23:22;;;;;;;11.53;3.40;;;12.20;99.90;;;;;;5014003;28;20627;-74
2023/03/30 08:25:51;;;;;;;10.67;3.43;;;12.20;99.90;;;;;;4994360;28;20253;-75
2023/03/30 08:28:20;;;;;;;9.43;3.37;;;12.10;99.90;;;;;;4994472;28;20210;-75
2023/03/30 08:30:48;;;;;;;9.97;3.17;;;12.10;99.90;;;;;;4994614;28;20210;-74
2023/03/30 08:33:17;;;;;;;12.77;3.63;;;12.10;99.90;;;;;;4994249;28;20237;-74
2023/03/30 08:35:46;;;;;;;12.87;3.10;;;12.10;99.90;;;;;;4994445;28;20234;-74
2023/03/30 08:38:18;;;;;;;12.23;3.60;;;12.20;99.90;;;;;;4994368;28;20217;-74
2023/03/30 08:40:47;;;;;;;13.57;3.43;;;12.30;99.90;;;;;;5014842;28;20663;-75
2023/03/30 08:43:34;;;;;;;12.43;3.57;;;12.20;99.90;;;;;;4994152;28;20241;-76
2023/03/30 08:46:03;;;;;;;10.10;2.87;;;12.10;99.90;;;;;;4994357;28;20572;-75
2023/03/30 08:48:36;;;;;;;8.70;2.97;;;12.10;99.90;;;;;;4994319;28;20536;-75
2023/03/30 08:51:13;;;;;;;9.63;3.00;;;12.00;99.90;;;;;;5000986;28;20217;-73
2023/03/30 08:53:42;;;;;;;9.53;3.30;;;12.20;99.90;;;;;;5010648;28;20229;-74
2023/03/30 08:56:16;;;;;;;9.70;3.30;;;12.30;99.90;;;;;;4994266;28;20230;-75
2023/03/30 08:58:54;;;;;;;10.33;3.50;;;12.40;99.90;;;;;;4995988;28;20580;-74
2023/03/30 09:01:26;;;;;;;8.30;2.83;;;12.50;99.90;;;;;;4997492;28;20190;-74
2023/03/30 09:04:06;;;;;;;9.47;2.90;;;12.50;99.90;;;;;;5013384;28;20511;-74
2023/03/30 09:06:46;;;;;;;11.10;3.70;;;12.50;99.90;;;;;;5013629;28;20245;-74
2023/03/30 09:09:18;;;;;;;9.70;3.33;;;12.50;99.90;;;;;;4996686;28;20212;-76
2023/03/30 09:11:50;;;;;;;8.43;3.27;;;12.60;99.90;;;;;;4994229;28;20194;-73
2023/03/30 09:14:26;;;;;;;8.23;2.83;;;12.60;99.90;;;;;;4994789;28;20199;-74
2023/03/30 09:16:58;;;;;;;13.40;3.87;;;12.90;99.90;;;;;;4999925;28;20238;-74
2023/03/30 09:19:33;;;;;;;14.80;3.40;;;13.20;99.90;;;;;;4994671;28;20199;-74
2023/03/30 09:22:04;;;;;;;8.17;2.87;;;13.50;99.90;;;;;;5006222;28;20302;-74
2023/03/30 09:24:34;;;;;;;9.70;2.60;;;13.90;99.90;;;;;;5013833;28;20198;-74
2023/03/30 09:27:08;;;;;;;9.50;3.20;;;14.20;99.90;;;;;;5017583;28;20441;-75
2023/03/30 09:29:43;;;;;;;8.13;2.70;;;14.70;99.90;;;;;;5013086;28;20198;-74
2023/03/30 09:32:17;;;;;;;9.47;3.13;;;14.90;99.90;;;;;;4993740;28;20216;-77
2023/03/30 09:34:52;;;;;;;7.03;2.83;;;15.20;99.90;;;;;;4993435;28;20230;-75
2023/03/30 09:37:21;;;;;;;9.63;2.80;;;15.80;99.90;;;;;;5007553;28;20664;-75
2023/03/30 09:39:51;;;;;;;7.90;2.77;;;16.20;99.90;;;;;;5008421;28;20542;-74
2023/03/30 09:42:33;;;;;;;7.93;2.80;;;16.20;99.90;;;;;;4993792;28;20214;-73
2023/03/30 09:45:07;;;;;;;10.63;2.53;;;16.00;99.90;;;;;;4993422;28;20265;-74
2023/03/30 09:47:38;;;;;;;10.55;3.08;;;16.00;99.90;;;;;;4993479;28;20433;-74
2023/03/30 09:50:09;;;;;;;9.53;2.90;;;16.50;99.90;;;;;;4993476;28;20212;-76
2023/03/30 09:52:39;;;;;;;9.77;2.47;;;17.30;99.90;;;;;;4993416;28;20200;-74
2023/03/30 09:55:25;;;;;;;9.43;2.50;;;17.60;99.90;;;;;;4993465;28;20199;-76
2023/03/30 09:58:12;;;;;;;9.20;2.60;;;17.80;99.90;;;;;;4992941;28;20526;-76
2023/03/30 10:00:40;;;;;;;9.93;3.03;;;17.60;99.90;;;;;;4993486;28;20195;-75
2023/03/30 10:03:19;;;;;;;9.23;2.23;;;17.40;99.90;;;;;;4992618;28;20220;-75
2023/03/30 10:06:01;;;;;;;10.33;2.63;;;17.60;99.90;;;;;;4993159;28;20221;-76
2023/03/30 10:08:31;;;;;;;9.47;2.70;;;17.90;99.90;;;;;;5013038;28;20266;-77
2023/03/30 10:11:04;;;;;;;8.80;2.50;;;18.30;99.90;;;;;;5017683;28;20263;-75
2023/03/30 10:13:36;;;;;;;9.80;2.70;;;18.50;99.90;;;;;;5012592;28;20447;-75
2023/03/30 10:16:07;;;;;;;11.27;2.60;;;18.90;99.90;;;;;;5003453;28;20214;-75
2023/03/30 10:18:40;;;;;;;13.67;2.90;;;19.10;99.90;;;;;;5012664;28;20221;-76
2023/03/30 10:21:18;;;;;;;7.07;2.53;;;18.80;99.90;;;;;;5021789;28;20244;-75
2023/03/30 10:23:47;;;;;;;13.83;3.70;;;18.50;99.90;;;;;;4993227;28;20197;-78
2023/03/30 10:26:19;;;;;;;9.10;3.00;;;18.40;99.90;;;;;;4992894;28;20221;-76
2023/03/30 10:28:55;;;;;;;7.80;3.13;;;18.20;99.90;;;;;;5010593;28;20257;-76
2023/03/30 10:31:26;;;;;;;12.33;3.50;;;18.60;99.90;;;;;;5003157;28;20216;-76
2023/03/30 10:33:58;;;;;;;8.50;2.90;;;18.80;99.90;;;;;;4992402;28;20238;-77
2023/03/30 10:36:31;;;;;;;9.73;2.60;;;19.10;99.90;;;;;;4997481;28;20683;-77
2023/03/30 10:39:14;;;;;;;9.63;2.83;;;19.40;99.90;;;;;;5012808;28;20252;-74
2023/03/30 10:41:46;;;;;;;9.27;2.83;;;19.10;99.90;;;;;;5008536;28;20297;-75
2023/03/30 10:44:21;;;;;;;8.93;2.90;;;18.80;99.90;;;;;;5002223;28;20577;-77
2023/03/30 10:46:53;;;;;;;10.87;3.10;;;18.00;99.90;;;;;;5016579;28;20584;-75
2023/03/30 10:49:36;;;;;;;11.10;3.27;;;17.80;99.90;;;;;;5007328;28;20300;-75
2023/03/30 10:52:14;;;;;;;15.00;3.13;;;17.10;99.90;;;;;;5013687;28;20304;-75
2023/03/30 10:54:50;;;;;;;15.13;2.80;;;16.80;99.90;;;;;;5016468;28;20600;-75
2023/03/30 10:57:24;;;;;;;15.77;3.87;;;16.80;99.90;;;;;;5028890;28;20299;-75
2023/03/30 11:00:17;;;;;;;15.77;3.47;;;16.60;99.90;;;;;;5036004;28;20282;-75
2023/03/30 11:02:54;;;;;;;13.37;3.40;;;16.50;99.90;;;;;;5013506;28;20264;-74
2023/03/30 11:05:28;;;;;;;15.70;3.30;;;16.30;99.90;;;;;;5014624;28;20197;-75
2023/03/30 11:08:03;;;;;;;10.73;2.77;;;16.20;99.90;;;;;;5022096;28;20200;-74
2023/03/30 11:10:35;;;;;;;11.03;3.47;;;16.00;99.90;;;;;;5023892;28;20240;-76
2023/03/30 11:13:07;;;;;;;11.97;2.90;;;15.80;99.90;;;;;;5025174;28;20236;-73
2023/03/30 11:15:41;;;;;;;13.53;3.17;;;15.40;99.90;;;;;;5019307;28;20672;-74
2023/03/30 11:18:16;;;;;;;12.03;3.20;;;15.20;99.90;;;;;;5023343;28;20236;-74
2023/03/30 11:20:51;;;;;;;9.37;2.90;;;15.10;99.90;;;;;;5020019;28;20205;-75
2023/03/30 11:23:27;;;;;;;13.83;3.43;;;14.90;99.90;;;;;;5022424;28;20665;-77
2023/03/30 11:26:02;;;;;;;12.50;3.30;;;14.80;99.90;;;;;;5021648;28;20189;-75
2023/03/30 11:29:05;;;;;;;9.20;3.37;;;14.80;99.90;;;;;;5024408;28;20206;-73
2023/03/30 11:31:45;;;;;;;17.67;4.10;;;14.70;99.90;;;;;;5026822;28;20256;-74
2023/03/30 11:34:21;;;;;;;12.10;3.30;;;14.60;99.90;;;;;;5023868;28;20217;-74
2023/03/30 11:36:59;;;;;;;17.90;3.83;;;14.50;99.90;;;;;;5019953;28;20228;-74
2023/03/30 11:39:33;;;;;;;14.47;3.10;;;14.40;99.90;;;;;;5025105;28;20194;-76
2023/03/30 11:42:12;;;;;;;12.80;3.73;;;14.30;99.90;;;;;;5025626;28;20224;-74
2023/03/30 11:44:42;;;;;;;12.30;3.50;;;14.00;99.90;;;;;;5024083;28;20289;-74
2023/03/30 11:47:24;;;;;;;8.17;3.00;;;14.00;99.90;;;;;;5015773;28;20208;-75
2023/03/30 11:50:06;;;;;;;13.37;3.47;;;14.00;99.90;;;;;;5025613;28;20193;-74
2023/03/30 11:52:42;;;;;;;11.97;3.40;;;14.00;99.90;;;;;;5017079;28;20225;-76
2023/03/30 11:55:28;;;;;;;9.03;3.23;;;14.00;99.90;;;;;;5014413;28;20209;-75
2023/03/30 11:58:06;;;;;;;8.17;3.10;;;13.90;99.90;;;;;;5021685;28;20563;-75
2023/03/30 12:00:57;;;;;;;12.17;3.30;;;14.00;99.90;;;;;;5020606;28;20201;-76
2023/03/30 12:03:36;;;;;;;10.20;3.03;;;14.10;99.90;;;;;;5024476;28;20559;-74
2023/03/30 12:06:33;;;;;;;8.70;2.97;;;13.90;99.90;;;;;;5023572;28;20198;-75
2023/03/30 12:09:19;;;;;;;7.30;2.60;;;13.70;99.90;;;;;;5003973;28;20568;-75
2023/03/30 12:11:51;;;;;;;8.27;3.23;;;13.60;99.90;;;;;;5025346;28;20192;-73
2023/03/30 12:14:35;;;;;;;7.47;2.90;;;13.30;99.90;;;;;;5018699;28;20205;-74
2023/03/30 12:17:13;;;;;;;6.83;3.03;;;13.20;99.90;;;;;;5024959;28;20189;-74
2023/03/30 12:19:46;;;;;;;8.57;3.37;;;13.00;99.90;;;;;;5006233;28;20296;-77
2023/03/30 12:22:30;;;;;;;7.57;3.00;;;12.80;99.90;;;;;;5017913;28;20201;-74
2023/03/30 12:25:03;;;;;;;9.33;2.97;;;12.60;99.90;;;;;;5021341;28;20225;-76
2023/03/30 12:27:35;;;;;;;10.13;3.20;;;12.40;99.90;;;;;;5012744;28;20241;-76
2023/03/30 12:30:14;;;;;;;7.30;3.30;;;12.20;99.90;;;;;;5024337;28;20618;-75
2023/03/30 12:33:01;;;;;;;9.57;3.50;;;11.90;99.90;;;;;;5020127;28;20224;-75
2023/03/30 12:35:55;;;;;;;9.50;3.63;;;11.70;99.90;;;;;;5021934;28;20292;-77
2023/03/30 12:38:25;;;;;;;9.83;3.33;;;11.50;99.90;;;;;;5024028;28;20584;-78
2023/03/30 12:41:04;;;;;;;8.47;3.30;;;11.40;99.90;;;;;;5025954;28;20213;-76
2023/03/30 12:43:42;;;;;;;8.60;3.13;;;11.30;99.90;;;;;;5020928;28;20504;-77
2023/03/30 12:46:19;;;;;;;7.23;2.80;;;11.20;99.90;;;;;;5024746;28;20236;-77
2023/03/30 12:48:59;;;;;;;7.17;3.03;;;11.10;99.90;;;;;;5024211;28;20204;-76
2023/03/30 12:51:46;;;;;;;6.70;3.20;;;11.00;99.90;;;;;;5014031;28;20455;-77
2023/03/30 12:54:57;;;;;;;6.90;3.07;;;11.00;99.90;;;;;;5013374;28;20202;-76
2023/03/30 12:57:41;;;;;;;8.50;2.93;;;10.90;99.90;;;;;;4976251;28;20276;-76
2023/03/30 13:00:28;;;;;;;6.20;2.57;;;10.90;99.90;;;;;;5013651;28;20241;-76
2023/03/30 13:03:23;;;;;;;8.10;2.67;;;10.90;99.90;;;;;;4997080;28;20212;-74
2023/03/30 13:05:54;;;;;;;5.53;2.83;;;10.90;99.90;;;;;;5008177;28;20217;-77
2023/03/30 13:08:31;;;;;;;5.47;2.67;;;10.90;99.90;;;;;;4994421;28;20214;-77
2023/03/30 13:11:13;;;;;;;6.22;3.25;;;11.00;99.90;;;;;;4993738;28;20826;-76
2023/03/30 13:14:14;;;;;;;6.80;3.00;;;11.10;99.90;;;;;;4993434;28;20198;-76